sensor_id;sensor_type;location;lat;lon;timestamp;pressure;altitude;pressure_sealevel;temperature;humidity
48846;BME280;34665;51.886;5.436;2022-12-19T00:01:14;101650.47;;;5.01;100.00
48846;BME280;34665;51.886;5.436;2022-12-19T00:03:53;101653.16;;;4.40;100.00
48846;BME280;34665;51.886;5.436;2022-12-19T00:06:19;101636.19;;;4.12;100.00
48846;BME280;34665;51.886;5.436;2022-12-19T00:08:46;101632.94;;;4.08;100.00
48846;BME280;34665;51.886;5.436;2022-12-19T00:11:14;101630.88;;;4.12;100.00
48846;BME280;34665;51.886;5.436;2022-12-19T00:13:40;101624.25;;;4.37;100.00
48846;BME280;34665;51.886;5.436;2022-12-19T00:16:10;101619.72;;;4.08;100.00
48846;BME280;34665;51.886;5.436;2022-12-19T00:18:39;101626.16;;;4.15;100.00
48846;BME280;34665;51.886;5.436;2022-12-19T00:21:05;101629.69;;;5.06;100.00
48846;BME280;34665;51.886;5.436;2022-12-19T00:23:33;101624.28;;;4.47;100.00
48846;BME280;34665;51.886;5.436;2022-12-19T00:26:22;101619.47;;;4.62;100.00
48846;BME280;34665;51.886;5.436;2022-12-19T00:28:50;101619.59;;;5.49;100.00
48846;BME280;34665;51.886;5.436;2022-12-19T00:31:18;101623.03;;;4.41;100.00
48846;BME280;34665;51.886;5.436;2022-12-19T00:33:45;101612.19;;;4.44;100.00
48846;BME280;34665;51.886;5.436;2022-12-19T00:36:14;101607.16;;;4.41;100.00
48846;BME280;34665;51.886;5.436;2022-12-19T00:38:45;101600.84;;;4.33;100.00
48846;BME280;34665;51.886;5.436;2022-12-19T00:41:11;101586.94;;;5.39;100.00
48846;BME280;34665;51.886;5.436;2022-12-19T00:43:38;101573.53;;;4.42;100.00
48846;BME280;34665;51.886;5.436;2022-12-19T00:46:04;101578.84;;;4.52;100.00
48846;BME280;34665;51.886;5.436;2022-12-19T00:48:31;101562.03;;;5.59;100.00
48846;BME280;34665;51.886;5.436;2022-12-19T00:51:01;101555.16;;;6.87;100.00
48846;BME280;34665;51.886;5.436;2022-12-19T00:53:27;101570.75;;;5.22;100.00
48846;BME280;34665;51.886;5.436;2022-12-19T00:55:56;101564.66;;;4.82;100.00
48846;BME280;34665;51.886;5.436;2022-12-19T00:58:22;101569.50;;;5.74;100.00
48846;BME280;34665;51.886;5.436;2022-12-19T01:00:48;101570.75;;;6.17;100.00
48846;BME280;34665;51.886;5.436;2022-12-19T01:03:13;101566.19;;;5.05;100.00
48846;BME280;34665;51.886;5.436;2022-12-19T01:05:39;101570.19;;;5.38;100.00
48846;BME280;34665;51.886;5.436;2022-12-19T01:08:04;101557.53;;;4.83;100.00
48846;BME280;34665;51.886;5.436;2022-12-19T01:10:30;101572.31;;;5.72;100.00
48846;BME280;34665;51.886;5.436;2022-12-19T01:12:55;101568.25;;;5.30;100.00
48846;BME280;34665;51.886;5.436;2022-12-19T01:15:21;101565.47;;;5.70;100.00
48846;BME280;34665;51.886;5.436;2022-12-19T01:17:47;101569.88;;;6.27;100.00
48846;BME280;34665;51.886;5.436;2022-12-19T01:20:16;101561.78;;;5.43;100.00
48846;BME280;34665;51.886;5.436;2022-12-19T01:22:43;101547.09;;;5.58;100.00
48846;BME280;34665;51.886;5.436;2022-12-19T01:25:12;101532.34;;;5.74;100.00
48846;BME280;34665;51.886;5.436;2022-12-19T01:27:39;101555.84;;;7.07;100.00
48846;BME280;34665;51.886;5.436;2022-12-19T01:30:05;101532.69;;;6.63;100.00
48846;BME280;34665;51.886;5.436;2022-12-19T01:32:33;101557.97;;;6.03;100.00
48846;BME280;34665;51.886;5.436;2022-12-19T01:35:01;101542.66;;;5.39;100.00
48846;BME280;34665;51.886;5.436;2022-12-19T01:37:26;101542.75;;;6.69;100.00
48846;BME280;34665;51.886;5.436;2022-12-19T01:39:52;101535.91;;;5.93;100.00
48846;BME280;34665;51.886;5.436;2022-12-19T01:42:20;101562.44;;;7.21;100.00
48846;BME280;34665;51.886;5.436;2022-12-19T01:47:54;101539.47;;;6.11;100.00
48846;BME280;34665;51.886;5.436;2022-12-19T01:50:50;101532.41;;;7.11;100.00
48846;BME280;34665;51.886;5.436;2022-12-19T01:53:17;101538.66;;;7.89;100.00
48846;BME280;34665;51.886;5.436;2022-12-19T01:55:43;101527.88;;;6.30;100.00
48846;BME280;34665;51.886;5.436;2022-12-19T01:58:11;101523.31;;;6.23;100.00
48846;BME280;34665;51.886;5.436;2022-12-19T02:00:41;101540.78;;;6.25;100.00
48846;BME280;34665;51.886;5.436;2022-12-19T02:03:21;101541.34;;;6.29;100.00
48846;BME280;34665;51.886;5.436;2022-12-19T02:05:50;101519.72;;;6.42;100.00
48846;BME280;34665;51.886;5.436;2022-12-19T02:08:17;101521.97;;;7.17;100.00
48846;BME280;34665;51.886;5.436;2022-12-19T02:10:43;101533.06;;;6.86;100.00
48846;BME280;34665;51.886;5.436;2022-12-19T02:13:09;101508.22;;;6.41;100.00
48846;BME280;34665;51.886;5.436;2022-12-19T02:15:59;101514.91;;;7.26;100.00
48846;BME280;34665;51.886;5.436;2022-12-19T02:24:08;101496.94;;;6.57;100.00
48846;BME280;34665;51.886;5.436;2022-12-19T02:34:58;101477.72;;;6.45;100.00
48846;BME280;34665;51.886;5.436;2022-12-19T02:39:55;101473.91;;;6.66;100.00
48846;BME280;34665;51.886;5.436;2022-12-19T02:42:29;101473.41;;;6.89;100.00
48846;BME280;34665;51.886;5.436;2022-12-19T02:45:01;101468.88;;;7.08;100.00
48846;BME280;34665;51.886;5.436;2022-12-19T02:47:30;101467.47;;;7.56;100.00
48846;BME280;34665;51.886;5.436;2022-12-19T02:49:58;101453.81;;;6.90;100.00
48846;BME280;34665;51.886;5.436;2022-12-19T02:54:53;101452.78;;;6.83;100.00
48846;BME280;34665;51.886;5.436;2022-12-19T02:57:38;101440.00;;;6.86;100.00
48846;BME280;34665;51.886;5.436;2022-12-19T03:00:10;101433.53;;;6.89;100.00
48846;BME280;34665;51.886;5.436;2022-12-19T03:03:09;101439.03;;;6.87;100.00
48846;BME280;34665;51.886;5.436;2022-12-19T03:11:14;101439.53;;;6.91;100.00
48846;BME280;34665;51.886;5.436;2022-12-19T03:13:52;101437.72;;;6.92;100.00
48846;BME280;34665;51.886;5.436;2022-12-19T03:16:20;101432.38;;;6.92;100.00
48846;BME280;34665;51.886;5.436;2022-12-19T03:18:46;101441.19;;;7.18;100.00
48846;BME280;34665;51.886;5.436;2022-12-19T03:21:30;101426.81;;;6.77;100.00
48846;BME280;34665;51.886;5.436;2022-12-19T03:23:58;101435.25;;;6.98;100.00
48846;BME280;34665;51.886;5.436;2022-12-19T03:26:27;101423.47;;;7.01;100.00
48846;BME280;34665;51.886;5.436;2022-12-19T03:31:41;101422.75;;;7.17;100.00
48846;BME280;34665;51.886;5.436;2022-12-19T03:34:14;101413.13;;;7.24;100.00
48846;BME280;34665;51.886;5.436;2022-12-19T03:36:46;101409.69;;;7.06;100.00
48846;BME280;34665;51.886;5.436;2022-12-19T03:39:13;101418.13;;;7.27;100.00
48846;BME280;34665;51.886;5.436;2022-12-19T03:41:41;101396.91;;;7.44;100.00
48846;BME280;34665;51.886;5.436;2022-12-19T03:44:48;101408.13;;;7.21;100.00
48846;BME280;34665;51.886;5.436;2022-12-19T03:47:21;101395.81;;;7.20;100.00
48846;BME280;34665;51.886;5.436;2022-12-19T03:49:48;101403.75;;;7.12;100.00
48846;BME280;34665;51.886;5.436;2022-12-19T03:55:20;101393.97;;;7.21;100.00
48846;BME280;34665;51.886;5.436;2022-12-19T03:58:13;101387.16;;;7.18;100.00
48846;BME280;34665;51.886;5.436;2022-12-19T04:00:43;101379.88;;;8.13;100.00
48846;BME280;34665;51.886;5.436;2022-12-19T04:03:12;101369.16;;;7.55;100.00
48846;BME280;34665;51.886;5.436;2022-12-19T04:05:40;101382.00;;;7.68;100.00
48846;BME280;34665;51.886;5.436;2022-12-19T04:08:07;101379.94;;;7.45;100.00
48846;BME280;34665;51.886;5.436;2022-12-19T04:10:42;101379.84;;;7.20;100.00
48846;BME280;34665;51.886;5.436;2022-12-19T04:13:17;101369.59;;;6.99;100.00
48846;BME280;34665;51.886;5.436;2022-12-19T04:16:17;101377.50;;;7.17;100.00
48846;BME280;34665;51.886;5.436;2022-12-19T04:18:54;101373.56;;;7.29;100.00
48846;BME280;34665;51.886;5.436;2022-12-19T04:21:27;101359.13;;;7.32;100.00
48846;BME280;34665;51.886;5.436;2022-12-19T04:24:01;101350.00;;;7.51;100.00
48846;BME280;34665;51.886;5.436;2022-12-19T04:26:32;101358.66;;;7.45;100.00
48846;BME280;34665;51.886;5.436;2022-12-19T04:29:02;101364.69;;;7.72;100.00
48846;BME280;34665;51.886;5.436;2022-12-19T04:31:29;101362.41;;;7.85;100.00
48846;BME280;34665;51.886;5.436;2022-12-19T04:33:55;101357.09;;;7.85;100.00
48846;BME280;34665;51.886;5.436;2022-12-19T04:36:22;101364.09;;;9.09;100.00
48846;BME280;34665;51.886;5.436;2022-12-19T04:38:49;101363.38;;;7.76;100.00
48846;BME280;34665;51.886;5.436;2022-12-19T04:41:14;101357.09;;;8.18;100.00
48846;BME280;34665;51.886;5.436;2022-12-19T04:43:40;101374.88;;;7.93;100.00
48846;BME280;34665;51.886;5.436;2022-12-19T04:46:05;101362.41;;;8.02;100.00
48846;BME280;34665;51.886;5.436;2022-12-19T04:48:34;101364.72;;;8.30;100.00
48846;BME280;34665;51.886;5.436;2022-12-19T04:50:59;101376.91;;;8.08;100.00
48846;BME280;34665;51.886;5.436;2022-12-19T04:53:25;101362.44;;;8.10;100.00
48846;BME280;34665;51.886;5.436;2022-12-19T04:55:59;101360.59;;;8.11;100.00
48846;BME280;34665;51.886;5.436;2022-12-19T04:58:24;101364.72;;;8.05;100.00
48846;BME280;34665;51.886;5.436;2022-12-19T05:00:50;101364.06;;;8.69;100.00
48846;BME280;34665;51.886;5.436;2022-12-19T05:03:15;101365.09;;;8.60;100.00
48846;BME280;34665;51.886;5.436;2022-12-19T05:05:41;101344.00;;;8.90;100.00
48846;BME280;34665;51.886;5.436;2022-12-19T05:08:06;101350.75;;;8.61;100.00
48846;BME280;34665;51.886;5.436;2022-12-19T05:10:32;101356.56;;;8.73;100.00
48846;BME280;34665;51.886;5.436;2022-12-19T05:12:57;101345.88;;;8.65;100.00
48846;BME280;34665;51.886;5.436;2022-12-19T05:15:23;101353.00;;;8.89;100.00
48846;BME280;34665;51.886;5.436;2022-12-19T05:17:49;101354.06;;;8.80;100.00
48846;BME280;34665;51.886;5.436;2022-12-19T05:20:14;101355.19;;;8.85;100.00
48846;BME280;34665;51.886;5.436;2022-12-19T05:22:40;101350.97;;;8.99;100.00
48846;BME280;34665;51.886;5.436;2022-12-19T05:25:05;101345.47;;;9.01;100.00
48846;BME280;34665;51.886;5.436;2022-12-19T05:27:31;101340.56;;;9.76;100.00
48846;BME280;34665;51.886;5.436;2022-12-19T05:29:56;101350.19;;;9.30;100.00
48846;BME280;34665;51.886;5.436;2022-12-19T05:32:21;101343.19;;;9.21;100.00
48846;BME280;34665;51.886;5.436;2022-12-19T05:34:47;101339.88;;;9.19;100.00
48846;BME280;34665;51.886;5.436;2022-12-19T05:37:13;101346.75;;;9.45;100.00
48846;BME280;34665;51.886;5.436;2022-12-19T05:39:38;101341.53;;;9.52;100.00
48846;BME280;34665;51.886;5.436;2022-12-19T05:42:04;101347.53;;;11.22;100.00
48846;BME280;34665;51.886;5.436;2022-12-19T05:44:29;101341.03;;;9.56;100.00
48846;BME280;34665;51.886;5.436;2022-12-19T05:46:55;101337.25;;;9.74;100.00
48846;BME280;34665;51.886;5.436;2022-12-19T05:49:20;101342.94;;;9.71;100.00
48846;BME280;34665;51.886;5.436;2022-12-19T05:51:46;101337.19;;;9.82;100.00
48846;BME280;34665;51.886;5.436;2022-12-19T05:54:11;101339.03;;;9.82;100.00
48846;BME280;34665;51.886;5.436;2022-12-19T05:56:37;101331.19;;;10.42;100.00
48846;BME280;34665;51.886;5.436;2022-12-19T05:59:02;101343.94;;;10.70;100.00
48846;BME280;34665;51.886;5.436;2022-12-19T06:01:28;101357.97;;;9.72;100.00
48846;BME280;34665;51.886;5.436;2022-12-19T06:03:54;101352.63;;;9.72;100.00
48846;BME280;34665;51.886;5.436;2022-12-19T06:06:22;101362.41;;;10.65;100.00
48846;BME280;34665;51.886;5.436;2022-12-19T06:08:52;101341.69;;;10.05;100.00
48846;BME280;34665;51.886;5.436;2022-12-19T06:11:18;101345.81;;;9.93;100.00
48846;BME280;34665;51.886;5.436;2022-12-19T06:13:43;101347.69;;;10.07;100.00
48846;BME280;34665;51.886;5.436;2022-12-19T06:16:14;101369.31;;;10.21;100.00
48846;BME280;34665;51.886;5.436;2022-12-19T06:18:41;101361.69;;;10.09;100.00
48846;BME280;34665;51.886;5.436;2022-12-19T06:21:25;101353.25;;;10.21;100.00
48846;BME280;34665;51.886;5.436;2022-12-19T06:23:51;101346.06;;;10.44;100.00
48846;BME280;34665;51.886;5.436;2022-12-19T06:26:18;101340.38;;;10.01;100.00
48846;BME280;34665;51.886;5.436;2022-12-19T06:28:44;101343.47;;;10.13;100.00
48846;BME280;34665;51.886;5.436;2022-12-19T06:31:10;101338.13;;;10.13;100.00
48846;BME280;34665;51.886;5.436;2022-12-19T06:33:36;101340.19;;;10.64;100.00
48846;BME280;34665;51.886;5.436;2022-12-19T06:36:05;101347.03;;;10.28;100.00
48846;BME280;34665;51.886;5.436;2022-12-19T06:38:32;101342.56;;;10.21;100.00
48846;BME280;34665;51.886;5.436;2022-12-19T06:40:58;101353.97;;;10.14;100.00
48846;BME280;34665;51.886;5.436;2022-12-19T06:43:42;101356.97;;;10.35;100.00
48846;BME280;34665;51.886;5.436;2022-12-19T06:46:09;101350.59;;;11.56;100.00
48846;BME280;34665;51.886;5.436;2022-12-19T06:48:35;101347.91;;;10.59;100.00
48846;BME280;34665;51.886;5.436;2022-12-19T06:51:01;101357.59;;;10.22;100.00
48846;BME280;34665;51.886;5.436;2022-12-19T06:53:28;101361.75;;;10.47;100.00
48846;BME280;34665;51.886;5.436;2022-12-19T06:55:56;101349.50;;;10.53;100.00
48846;BME280;34665;51.886;5.436;2022-12-19T06:58:22;101345.81;;;10.84;100.00
48846;BME280;34665;51.886;5.436;2022-12-19T07:00:48;101351.41;;;11.04;100.00
48846;BME280;34665;51.886;5.436;2022-12-19T07:03:23;101347.19;;;10.65;100.00
48846;BME280;34665;51.886;5.436;2022-12-19T07:05:49;101342.50;;;10.67;100.00
48846;BME280;34665;51.886;5.436;2022-12-19T07:08:15;101354.75;;;10.61;100.00
48846;BME280;34665;51.886;5.436;2022-12-19T07:10:40;101359.66;;;10.73;100.00
48846;BME280;34665;51.886;5.436;2022-12-19T07:13:05;101368.50;;;10.35;100.00
48846;BME280;34665;51.886;5.436;2022-12-19T07:15:32;101377.72;;;11.16;100.00
48846;BME280;34665;51.886;5.436;2022-12-19T07:18:00;101364.69;;;10.53;100.00
48846;BME280;34665;51.886;5.436;2022-12-19T07:20:29;101364.44;;;10.63;100.00
48846;BME280;34665;51.886;5.436;2022-12-19T07:22:56;101358.06;;;10.49;100.00
48846;BME280;34665;51.886;5.436;2022-12-19T07:25:21;101367.78;;;11.10;100.00
48846;BME280;34665;51.886;5.436;2022-12-19T07:27:47;101368.22;;;10.68;100.00
48846;BME280;34665;51.886;5.436;2022-12-19T07:30:14;101375.78;;;10.80;100.00
48846;BME280;34665;51.886;5.436;2022-12-19T07:32:39;101383.00;;;10.41;100.00
48846;BME280;34665;51.886;5.436;2022-12-19T07:35:08;101376.44;;;10.82;100.00
48846;BME280;34665;51.886;5.436;2022-12-19T07:37:34;101375.13;;;10.78;100.00
48846;BME280;34665;51.886;5.436;2022-12-19T07:40:00;101384.81;;;10.79;100.00
48846;BME280;34665;51.886;5.436;2022-12-19T07:42:26;101390.75;;;11.19;100.00
48846;BME280;34665;51.886;5.436;2022-12-19T07:44:51;101377.47;;;10.96;100.00
48846;BME280;34665;51.886;5.436;2022-12-19T07:47:16;101383.47;;;10.98;100.00
48846;BME280;34665;51.886;5.436;2022-12-19T07:49:42;101381.34;;;10.78;100.00
48846;BME280;34665;51.886;5.436;2022-12-19T07:52:08;101372.75;;;10.98;100.00
48846;BME280;34665;51.886;5.436;2022-12-19T07:54:34;101379.19;;;11.03;100.00
48846;BME280;34665;51.886;5.436;2022-12-19T07:57:00;101375.44;;;10.98;100.00
48846;BME280;34665;51.886;5.436;2022-12-19T07:59:26;101378.19;;;11.04;100.00
48846;BME280;34665;51.886;5.436;2022-12-19T08:01:51;101390.19;;;11.09;100.00
48846;BME280;34665;51.886;5.436;2022-12-19T08:04:16;101395.19;;;11.12;100.00
48846;BME280;34665;51.886;5.436;2022-12-19T08:06:42;101391.28;;;10.99;100.00
48846;BME280;34665;51.886;5.436;2022-12-19T08:09:08;101404.78;;;11.06;100.00
48846;BME280;34665;51.886;5.436;2022-12-19T08:11:33;101410.13;;;11.06;100.00
48846;BME280;34665;51.886;5.436;2022-12-19T08:13:58;101396.75;;;10.91;100.00
48846;BME280;34665;51.886;5.436;2022-12-19T08:16:25;101413.25;;;10.80;100.00
48846;BME280;34665;51.886;5.436;2022-12-19T08:18:52;101413.72;;;10.83;100.00
48846;BME280;34665;51.886;5.436;2022-12-19T08:21:18;101413.72;;;10.83;100.00
48846;BME280;34665;51.886;5.436;2022-12-19T08:23:43;101393.88;;;10.78;100.00
48846;BME280;34665;51.886;5.436;2022-12-19T08:26:12;101397.56;;;10.76;100.00
48846;BME280;34665;51.886;5.436;2022-12-19T08:28:38;101394.06;;;10.91;100.00
48846;BME280;34665;51.886;5.436;2022-12-19T08:33:31;101396.84;;;10.98;100.00
48846;BME280;34665;51.886;5.436;2022-12-19T08:35:57;101392.34;;;12.30;100.00
48846;BME280;34665;51.886;5.436;2022-12-19T08:38:22;101407.19;;;11.16;100.00
48846;BME280;34665;51.886;5.436;2022-12-19T08:40:54;101389.44;;;11.15;100.00
48846;BME280;34665;51.886;5.436;2022-12-19T08:43:22;101409.97;;;11.08;100.00
48846;BME280;34665;51.886;5.436;2022-12-19T08:45:48;101404.38;;;11.24;100.00
48846;BME280;34665;51.886;5.436;2022-12-19T08:48:14;101402.72;;;11.23;100.00
48846;BME280;34665;51.886;5.436;2022-12-19T08:50:39;101406.44;;;11.22;100.00
48846;BME280;34665;51.886;5.436;2022-12-19T08:53:05;101409.22;;;11.14;100.00
48846;BME280;34665;51.886;5.436;2022-12-19T08:55:30;101409.38;;;11.27;100.00
48846;BME280;34665;51.886;5.436;2022-12-19T08:57:56;101403.38;;;11.10;100.00
48846;BME280;34665;51.886;5.436;2022-12-19T09:00:21;101415.38;;;11.44;100.00
48846;BME280;34665;51.886;5.436;2022-12-19T09:02:47;101409.06;;;12.54;100.00
48846;BME280;34665;51.886;5.436;2022-12-19T09:05:12;101413.44;;;11.08;100.00
48846;BME280;34665;51.886;5.436;2022-12-19T09:07:38;101414.72;;;11.27;100.00
48846;BME280;34665;51.886;5.436;2022-12-19T09:10:05;101414.00;;;11.33;100.00
48846;BME280;34665;51.886;5.436;2022-12-19T09:12:32;101428.31;;;11.26;100.00
48846;BME280;34665;51.886;5.436;2022-12-19T09:14:57;101425.53;;;11.19;100.00
48846;BME280;34665;51.886;5.436;2022-12-19T09:17:22;101425.63;;;11.41;100.00
48846;BME280;34665;51.886;5.436;2022-12-19T09:19:48;101424.25;;;11.30;100.00
48846;BME280;34665;51.886;5.436;2022-12-19T09:22:14;101422.59;;;11.14;100.00
48846;BME280;34665;51.886;5.436;2022-12-19T09:24:40;101426.09;;;11.44;100.00
48846;BME280;34665;51.886;5.436;2022-12-19T09:27:05;101424.34;;;11.37;100.00
48846;BME280;34665;51.886;5.436;2022-12-19T09:29:31;101421.94;;;11.27;100.00
48846;BME280;34665;51.886;5.436;2022-12-19T09:31:56;101419.59;;;11.54;100.00
48846;BME280;34665;51.886;5.436;2022-12-19T09:34:26;101415.28;;;11.38;100.00
48846;BME280;34665;51.886;5.436;2022-12-19T09:36:53;101420.25;;;11.56;100.00
48846;BME280;34665;51.886;5.436;2022-12-19T09:39:18;101422.88;;;11.19;100.00
48846;BME280;34665;51.886;5.436;2022-12-19T09:44:28;101435.28;;;11.94;100.00
48846;BME280;34665;51.886;5.436;2022-12-19T09:47:00;101439.75;;;11.04;100.00
48846;BME280;34665;51.886;5.436;2022-12-19T09:49:37;101437.25;;;11.48;100.00
48846;BME280;34665;51.886;5.436;2022-12-19T09:52:09;101429.13;;;11.56;100.00
48846;BME280;34665;51.886;5.436;2022-12-19T09:54:42;101428.56;;;11.46;100.00
48846;BME280;34665;51.886;5.436;2022-12-19T10:00:07;101423.69;;;11.35;100.00
48846;BME280;34665;51.886;5.436;2022-12-19T10:02:58;101432.44;;;11.28;100.00
48846;BME280;34665;51.886;5.436;2022-12-19T10:05:30;101448.72;;;11.42;100.00
48846;BME280;34665;51.886;5.436;2022-12-19T10:07:58;101430.47;;;12.69;100.00
48846;BME280;34665;51.886;5.436;2022-12-19T10:10:44;101434.34;;;12.67;100.00
48846;BME280;34665;51.886;5.436;2022-12-19T10:16:15;101437.22;;;11.63;100.00
48846;BME280;34665;51.886;5.436;2022-12-19T10:18:54;101424.22;;;11.45;100.00
48846;BME280;34665;51.886;5.436;2022-12-19T10:21:30;101410.31;;;11.71;100.00
48846;BME280;34665;51.886;5.436;2022-12-19T10:27:00;101424.38;;;12.10;100.00
48846;BME280;34665;51.886;5.436;2022-12-19T10:30:13;101421.22;;;12.28;100.00
48846;BME280;34665;51.886;5.436;2022-12-19T10:35:36;101408.47;;;11.72;100.00
48846;BME280;34665;51.886;5.436;2022-12-19T10:38:31;101405.59;;;11.73;100.00
48846;BME280;34665;51.886;5.436;2022-12-19T10:41:15;101410.97;;;11.73;100.00
48846;BME280;34665;51.886;5.436;2022-12-19T10:44:02;101407.44;;;11.73;100.00
48846;BME280;34665;51.886;5.436;2022-12-19T10:46:38;101412.41;;;11.76;100.00
48846;BME280;34665;51.886;5.436;2022-12-19T10:49:17;101416.31;;;11.73;100.00
48846;BME280;34665;51.886;5.436;2022-12-19T10:51:56;101418.88;;;11.82;100.00
48846;BME280;34665;51.886;5.436;2022-12-19T10:54:25;101406.63;;;11.72;100.00
48846;BME280;34665;51.886;5.436;2022-12-19T10:56:51;101406.06;;;11.99;100.00
48846;BME280;34665;51.886;5.436;2022-12-19T10:59:19;101401.31;;;12.16;100.00
48846;BME280;34665;51.886;5.436;2022-12-19T11:01:45;101409.09;;;11.74;100.00
48846;BME280;34665;51.886;5.436;2022-12-19T11:04:30;101413.22;;;11.91;100.00
48846;BME280;34665;51.886;5.436;2022-12-19T11:07:15;101404.41;;;12.13;100.00
48846;BME280;34665;51.886;5.436;2022-12-19T11:09:41;101437.69;;;11.67;100.00
48846;BME280;34665;51.886;5.436;2022-12-19T11:12:15;101409.22;;;11.66;100.00
48846;BME280;34665;51.886;5.436;2022-12-19T11:14:48;101394.16;;;11.65;100.00
48846;BME280;34665;51.886;5.436;2022-12-19T11:19:57;101393.75;;;11.46;100.00
48846;BME280;34665;51.886;5.436;2022-12-19T11:22:29;101402.38;;;11.63;100.00
48846;BME280;34665;51.886;5.436;2022-12-19T11:24:54;101383.63;;;11.78;100.00
48846;BME280;34665;51.886;5.436;2022-12-19T11:27:42;101391.81;;;11.76;100.00
48846;BME280;34665;51.886;5.436;2022-12-19T11:30:19;101393.94;;;11.81;100.00
48846;BME280;34665;51.886;5.436;2022-12-19T11:32:47;101391.94;;;12.05;100.00
48846;BME280;34665;51.886;5.436;2022-12-19T11:35:15;101382.16;;;12.19;100.00
48846;BME280;34665;51.886;5.436;2022-12-19T11:37:46;101390.38;;;11.96;100.00
48846;BME280;34665;51.886;5.436;2022-12-19T11:40:30;101394.56;;;12.20;100.00
48846;BME280;34665;51.886;5.436;2022-12-19T11:43:06;101380.31;;;12.19;100.00
48846;BME280;34665;51.886;5.436;2022-12-19T11:45:52;101402.38;;;12.43;100.00
48846;BME280;34665;51.886;5.436;2022-12-19T11:48:37;101408.03;;;12.05;100.00
48846;BME280;34665;51.886;5.436;2022-12-19T11:54:13;101387.63;;;11.89;100.00
48846;BME280;34665;51.886;5.436;2022-12-19T11:56:41;101402.25;;;11.86;100.00
48846;BME280;34665;51.886;5.436;2022-12-19T11:59:12;101381.22;;;12.27;100.00
48846;BME280;34665;51.886;5.436;2022-12-19T12:01:49;101382.66;;;12.29;100.00
48846;BME280;34665;51.886;5.436;2022-12-19T12:04:33;101383.50;;;12.30;100.00
48846;BME280;34665;51.886;5.436;2022-12-19T12:07:03;101369.56;;;11.98;100.00
48846;BME280;34665;51.886;5.436;2022-12-19T12:12:22;101380.91;;;12.43;100.00
48846;BME280;34665;51.886;5.436;2022-12-19T12:15:01;101367.31;;;12.73;100.00
48846;BME280;34665;51.886;5.436;2022-12-19T12:20:20;101376.56;;;12.42;100.00
48846;BME280;34665;51.886;5.436;2022-12-19T12:23:16;101361.50;;;12.41;100.00
48846;BME280;34665;51.886;5.436;2022-12-19T12:36:58;101350.88;;;12.26;100.00
48846;BME280;34665;51.886;5.436;2022-12-19T12:45:41;101324.63;;;12.50;100.00
48846;BME280;34665;51.886;5.436;2022-12-19T12:48:26;101328.38;;;12.56;100.00
48846;BME280;34665;51.886;5.436;2022-12-19T12:50:55;101324.28;;;12.60;100.00
48846;BME280;34665;51.886;5.436;2022-12-19T12:53:25;101322.03;;;12.64;100.00
48846;BME280;34665;51.886;5.436;2022-12-19T12:55:57;101317.38;;;12.79;100.00
48846;BME280;34665;51.886;5.436;2022-12-19T13:01:33;101339.31;;;12.89;100.00
48846;BME280;34665;51.886;5.436;2022-12-19T13:06:42;101315.19;;;13.03;100.00
48846;BME280;34665;51.886;5.436;2022-12-19T13:09:26;101323.66;;;13.00;100.00
48846;BME280;34665;51.886;5.436;2022-12-19T13:11:59;101312.50;;;12.96;100.00
48846;BME280;34665;51.886;5.436;2022-12-19T13:14:49;101307.59;;;13.07;100.00
48846;BME280;34665;51.886;5.436;2022-12-19T13:22:40;101292.22;;;12.87;100.00
48846;BME280;34665;51.886;5.436;2022-12-19T13:30:26;101282.66;;;13.26;100.00
48846;BME280;34665;51.886;5.436;2022-12-19T13:37:45;101277.34;;;12.84;100.00
48846;BME280;34665;51.886;5.436;2022-12-19T13:40:25;101273.97;;;12.69;100.00
48846;BME280;34665;51.886;5.436;2022-12-19T13:43:20;101263.97;;;12.98;100.00
48846;BME280;34665;51.886;5.436;2022-12-19T13:46:39;101262.47;;;12.82;100.00
48846;BME280;34665;51.886;5.436;2022-12-19T13:49:29;101253.19;;;12.91;100.00
48846;BME280;34665;51.886;5.436;2022-12-19T13:51:57;101245.88;;;13.20;100.00
48846;BME280;34665;51.886;5.436;2022-12-19T13:54:29;101236.78;;;13.14;100.00
48846;BME280;34665;51.886;5.436;2022-12-19T13:56:57;101239.25;;;13.09;100.00
48846;BME280;34665;51.886;5.436;2022-12-19T13:59:26;101235.31;;;13.18;100.00
48846;BME280;34665;51.886;5.436;2022-12-19T14:01:53;101224.63;;;13.39;100.00
48846;BME280;34665;51.886;5.436;2022-12-19T14:04:28;101225.50;;;12.84;100.00
48846;BME280;34665;51.886;5.436;2022-12-19T14:06:58;101225.16;;;13.00;100.00
48846;BME280;34665;51.886;5.436;2022-12-19T14:09:34;101232.25;;;13.15;100.00
48846;BME280;34665;51.886;5.436;2022-12-19T14:12:04;101239.19;;;12.96;100.00
48846;BME280;34665;51.886;5.436;2022-12-19T14:14:31;101243.41;;;13.25;100.00
48846;BME280;34665;51.886;5.436;2022-12-19T14:17:18;101246.41;;;12.88;100.00
48846;BME280;34665;51.886;5.436;2022-12-19T14:19:47;101242.09;;;12.94;100.00
48846;BME280;34665;51.886;5.436;2022-12-19T14:24:56;101260.88;;;12.94;100.00
48846;BME280;34665;51.886;5.436;2022-12-19T14:27:30;101258.84;;;13.10;100.00
48846;BME280;34665;51.886;5.436;2022-12-19T14:29:58;101239.28;;;13.29;100.00
48846;BME280;34665;51.886;5.436;2022-12-19T14:32:25;101224.81;;;13.37;100.00
48846;BME280;34665;51.886;5.436;2022-12-19T14:34:51;101223.59;;;13.40;100.00
48846;BME280;34665;51.886;5.436;2022-12-19T14:37:27;101219.72;;;13.49;100.00
48846;BME280;34665;51.886;5.436;2022-12-19T14:39:58;101208.69;;;13.30;100.00
48846;BME280;34665;51.886;5.436;2022-12-19T14:42:25;101197.13;;;13.23;100.00
48846;BME280;34665;51.886;5.436;2022-12-19T14:45:39;101205.84;;;13.52;100.00